0PS4 weather

Old Orchard Airport
Curwensville, Pennsylvania, United States

Public forecast

Using degrees Fahrenheit for public forecast. Weather courtesy of forecast.io.

Closest aviation weather report (METAR) to Old Orchard Airport

Closest report is Clearfield Lawrence Airport, 7.1 nm (13.2 km) ENE. Retrieved 2019/10/23 18:54 UTC (48 minutes ago):

KFIG 231854Z AUTO 26013G20KT 10SM SCT060 12/M02 A3004 RMK AO2 PK WND 23026/1833 SLP175 T01221017

Closest aviation forecast (TAF) to Old Orchard Airport

Closest forecast is DuBois Regional Airport, 18.4 nm (34.0 km) NW. Retrieved 2019/10/23 18:22 UTC (1 hour ago):

TAF KDUJ 231720Z 2318/2418 26016G26KT P6SM SKC FM232300 24006KT P6SM SKC FM240600 21006KT P6SM SKC WS015/24035KT FM241400 21011G24KT P6SM BKN200